Time;durP1;ratioP1;P1;durP2;ratioP2;P2;SDS_P1;SDS_P2;PMS_P1;PMS_P2;Temp;Humidity;BMP_temperature;BMP_pressure;BME280_temperature;BME280_humidity;BME280_pressure;Samples;Min_cycle;Max_cycle;Signal;HPM_P1;HPM_P2
2023/09/05 00:00:12;;;;;;;;;16.00;16.00;;;;;18.18;50.88;99678.41;5111579;28;8852;-76
2023/09/05 00:03:01;;;;;;;;;14.60;14.00;;;;;18.07;51.29;99686.94;5112000;28;8861;-76
2023/09/05 00:05:32;;;;;;;;;14.80;14.80;;;;;18.09;51.19;99684.19;5111890;28;8983;-75
2023/09/05 00:08:01;;;;;;;;;17.00;14.40;;;;;18.02;51.41;99693.38;5112261;28;8861;-76
2023/09/05 00:10:30;;;;;;;;;14.40;14.40;;;;;17.99;51.58;99691.75;5102295;28;8848;-77
2023/09/05 00:13:05;;;;;;;;;15.40;13.60;;;;;17.96;51.69;99700.72;5091426;28;8945;-76
2023/09/05 00:15:36;;;;;;;;;16.20;16.20;;;;;17.93;51.82;99700.00;5091309;28;8847;-76
2023/09/05 00:18:05;;;;;;;;;14.40;13.80;;;;;17.89;52.15;99703.75;5093491;28;8867;-76
2023/09/05 00:20:34;;;;;;;;;14.80;14.00;;;;;17.80;52.05;99701.53;5093015;28;8928;-77
2023/09/05 00:23:02;;;;;;;;;19.80;19.60;;;;;17.69;52.69;99702.94;5089715;28;8982;-77
2023/09/05 00:25:32;;;;;;;;;15.00;14.80;;;;;17.57;53.15;99703.50;5090155;28;8855;-76
2023/09/05 00:28:03;;;;;;;;;18.40;17.00;;;;;17.57;53.37;99701.75;5090309;28;8871;-77
2023/09/05 00:30:34;;;;;;;;;17.60;17.60;;;;;17.66;52.99;99696.91;5091165;28;8966;-76
2023/09/05 00:33:05;;;;;;;;;14.20;14.20;;;;;17.70;53.07;99696.69;5089365;28;8863;-76
2023/09/05 00:35:34;;;;;;;;;15.60;15.60;;;;;17.74;52.88;99695.63;5089352;28;8863;-76
2023/09/05 00:38:03;;;;;;;;;20.40;17.60;;;;;17.73;52.93;99685.03;5090650;28;8855;-74
2023/09/05 00:40:31;;;;;;;;;15.80;15.80;;;;;17.68;52.93;99687.91;5105241;28;8852;-76
2023/09/05 00:43:00;;;;;;;;;16.80;16.80;;;;;17.69;52.79;99691.44;5105281;27;8882;-76
2023/09/05 00:45:30;;;;;;;;;18.40;18.00;;;;;17.63;52.94;99692.59;5088871;28;8896;-75
2023/09/05 00:48:01;;;;;;;;;17.00;16.00;;;;;17.59;52.90;99691.03;5088833;28;8855;-76
2023/09/05 00:50:31;;;;;;;;;17.40;17.40;;;;;17.48;53.44;99694.19;5049019;28;8836;-76
2023/09/05 00:53:00;;;;;;;;;16.40;15.80;;;;;17.50;53.53;99702.09;5090759;28;8863;-75
2023/09/05 00:55:30;;;;;;;;;18.60;17.60;;;;;17.51;53.45;99703.81;5105932;28;8856;-75
2023/09/05 00:58:00;;;;;;;;;18.60;16.80;;;;;17.54;53.19;99698.34;5122570;27;9626;-76
2023/09/05 01:00:29;;;;;;;;;18.60;18.60;;;;;17.52;53.23;99692.25;5104453;28;8848;-76
2023/09/05 01:02:58;;;;;;;;;17.60;17.60;;;;;17.42;53.43;99689.19;5108962;28;8810;-75
2023/09/05 01:05:31;;;;;;;;;19.20;17.80;;;;;17.53;53.22;99696.63;5109307;28;8976;-76
2023/09/05 01:08:05;;;;;;;;;18.20;18.20;;;;;17.64;53.13;99698.78;5126384;27;8953;-75
2023/09/05 01:10:42;;;;;;;;;18.40;18.40;;;;;17.65;53.01;99701.38;5126114;27;8829;-75
2023/09/05 01:13:11;;;;;;;;;19.40;18.20;;;;;17.68;52.86;99703.00;5109589;28;8849;-75
2023/09/05 01:15:42;;;;;;;;;20.00;18.80;;;;;17.69;52.71;99710.91;5102383;28;8849;-75
2023/09/05 01:18:11;;;;;;;;;19.40;19.40;;;;;17.70;53.05;99706.44;5108812;28;8888;-76
2023/09/05 01:20:59;;;;;;;;;20.80;19.20;;;;;17.76;53.17;99703.53;5108461;28;8861;-75
2023/09/05 01:23:38;;;;;;;;;18.60;18.40;;;;;17.77;53.45;99700.75;5125872;27;8987;-76
2023/09/05 01:26:09;;;;;;;;;18.20;18.20;;;;;17.75;53.28;99701.78;5124760;27;8845;-76
2023/09/05 01:28:41;;;;;;;;;22.80;21.40;;;;;17.70;53.48;99696.69;5108888;28;8963;-75
2023/09/05 01:31:11;;;;;;;;;21.40;20.00;;;;;17.70;53.41;99694.03;5104467;28;8886;-75
2023/09/05 01:33:41;;;;;;;;;18.60;17.60;;;;;17.68;53.69;99695.03;5088590;28;8986;-73
2023/09/05 01:36:10;;;;;;;;;17.20;17.00;;;;;17.67;53.58;99690.66;5070464;28;8980;-76
2023/09/05 01:38:39;;;;;;;;;16.00;16.00;;;;;17.68;53.65;99685.25;5105466;28;9006;-73
2023/09/05 01:41:10;;;;;;;;;17.80;17.80;;;;;17.68;53.61;99693.22;5088171;28;8944;-75
2023/09/05 01:43:38;;;;;;;;;18.40;17.40;;;;;17.60;53.82;99698.06;5037515;28;9780;-75
2023/09/05 01:46:07;;;;;;;;;17.60;17.60;;;;;17.50;53.94;99702.94;5105262;28;8848;-74
2023/09/05 01:48:36;;;;;;;;;18.00;17.40;;;;;17.46;54.28;99704.03;5088192;28;8864;-75
2023/09/05 01:51:05;;;;;;;;;17.40;17.00;;;;;17.38;54.40;99696.44;5118926;27;8855;-74
2023/09/05 01:53:34;;;;;;;;;17.40;16.80;;;;;17.31;54.82;99707.41;5109364;28;8848;-75
2023/09/05 01:56:03;;;;;;;;;18.80;18.80;;;;;17.33;54.79;99708.22;5073997;28;8864;-74
2023/09/05 01:58:33;;;;;;;;;18.60;18.60;;;;;17.31;55.12;99708.28;5107911;28;8913;-75
2023/09/05 02:01:03;;;;;;;;;16.60;16.00;;;;;17.32;54.88;99704.66;5124971;27;8840;-75
2023/09/05 02:03:32;;;;;;;;;17.60;17.60;;;;;17.31;54.95;99704.75;5125006;27;8848;-74
2023/09/05 02:06:01;;;;;;;;;21.40;21.40;;;;;17.29;54.97;99701.31;5123804;27;8863;-74
2023/09/05 02:08:30;;;;;;;;;22.20;22.20;;;;;17.27;55.19;99703.16;5069823;28;8874;-75
2023/09/05 02:10:59;;;;;;;;;22.20;22.20;;;;;17.27;55.07;99700.50;5089106;28;8855;-75
2023/09/05 02:13:28;;;;;;;;;20.80;20.60;;;;;17.26;55.23;99706.75;5087603;28;8856;-75
2023/09/05 02:15:58;;;;;;;;;18.80;18.80;;;;;17.27;55.08;99705.81;5087525;28;8852;-74
2023/09/05 02:18:27;;;;;;;;;20.80;20.40;;;;;17.22;55.19;99707.81;5052961;28;8844;-75
2023/09/05 02:20:58;;;;;;;;;22.20;21.00;;;;;17.18;55.33;99712.41;5087240;28;8860;-74
2023/09/05 02:23:28;;;;;;;;;21.60;21.60;;;;;17.15;55.44;99715.19;5088604;28;8871;-74
2023/09/05 02:25:58;;;;;;;;;23.00;21.80;;;;;17.10;55.41;99714.56;5106106;28;8845;-74
2023/09/05 02:28:27;;;;;;;;;22.80;22.80;;;;;17.09;55.28;99718.97;5124795;27;8840;-77
2023/09/05 02:30:58;;;;;;;;;26.00;21.80;;;;;17.11;55.36;99722.41;5124249;27;8848;-74
2023/09/05 02:33:29;;;;;;;;;13.00;9.00;;;;;17.12;55.40;99718.00;5107780;28;9614;-76
2023/09/05 02:36:10;;;;;;;;;21.20;20.00;;;;;17.23;55.13;99714.81;5109731;28;8860;-75
2023/09/05 02:38:39;;;;;;;;;21.20;19.60;;;;;17.16;55.48;99707.16;5108754;28;8861;-75
2023/09/05 02:41:11;;;;;;;;;16.80;16.80;;;;;17.21;55.20;99714.88;5051296;28;8831;-76
2023/09/05 02:43:40;;;;;;;;;21.80;21.00;;;;;17.18;55.25;99715.91;5106291;28;8990;-75
2023/09/05 02:46:11;;;;;;;;;21.00;21.00;;;;;17.21;55.15;99712.22;5106016;28;8969;-75
2023/09/05 02:48:41;;;;;;;;;17.80;17.40;;;;;17.24;55.24;99714.75;5055391;28;8855;-76
2023/09/05 02:51:12;;;;;;;;;17.80;17.80;;;;;17.25;54.99;99713.88;5106517;27;8845;-75
2023/09/05 02:53:41;;;;;;;;;23.80;22.60;;;;;17.31;54.88;99712.72;5065475;28;8844;-76
2023/09/05 02:56:10;;;;;;;;;19.60;19.60;;;;;17.34;54.87;99712.56;5065327;28;8847;-75
2023/09/05 02:58:39;;;;;;;;;23.40;21.40;;;;;17.36;54.55;99716.91;5054541;28;8860;-75
2023/09/05 03:01:11;;;;;;;;;21.00;21.00;;;;;17.37;54.69;99707.13;5069109;28;8840;-76
2023/09/05 03:03:41;;;;;;;;;19.40;19.40;;;;;17.28;54.87;99716.38;5088479;28;8857;-75
2023/09/05 03:06:11;;;;;;;;;21.00;20.60;;;;;17.30;54.65;99714.50;5089736;28;8977;-76
2023/09/05 03:08:42;;;;;;;;;22.20;21.60;;;;;17.34;54.62;99724.09;5089751;28;9022;-77
2023/09/05 03:11:11;;;;;;;;;21.00;21.00;;;;;17.41;54.35;99726.44;5049413;28;8989;-74
2023/09/05 03:13:40;;;;;;;;;20.40;20.40;;;;;17.44;54.32;99734.25;5066127;28;8999;-75
2023/09/05 03:16:12;;;;;;;;;22.00;20.80;;;;;17.46;53.85;99733.28;5031430;28;8988;-76
2023/09/05 03:18:43;;;;;;;;;21.80;21.80;;;;;17.49;54.01;99732.25;5067852;28;8923;-75
2023/09/05 03:21:12;;;;;;;;;22.00;21.20;;;;;17.45;54.15;99728.03;5050065;28;9026;-76
2023/09/05 03:23:40;;;;;;;;;46.75;39.25;;;;;17.45;54.44;99726.22;5068900;28;9589;-74
2023/09/05 03:26:09;;;;;;;;;41.25;36.25;;;;;17.46;54.13;99727.09;5089267;28;8846;-77
2023/09/05 03:28:40;;;;;;;;;21.20;21.20;;;;;17.46;54.33;99727.09;5089111;28;8946;-75
2023/09/05 03:31:13;;;;;;;;;26.20;25.40;;;;;17.44;54.06;99728.94;5089318;28;8846;-75
2023/09/05 03:33:42;;;;;;;;;19.00;19.00;;;;;17.41;54.07;99735.28;5038102;28;8988;-75
2023/09/05 03:36:12;;;;;;;;;21.80;20.80;;;;;17.38;53.99;99738.06;5089060;28;8849;-75
2023/09/05 03:38:40;;;;;;;;;22.80;21.80;;;;;17.36;53.89;99735.50;5089210;28;8872;-74
2023/09/05 03:41:09;;;;;;;;;20.20;20.20;;;;;17.38;53.90;99741.59;4989552;28;8849;-75
2023/09/05 03:43:38;;;;;;;;;22.60;21.20;;;;;17.38;53.90;99744.25;5112204;28;8864;-76
2023/09/05 03:46:07;;;;;;;;;23.60;21.80;;;;;17.34;53.67;99748.00;5127929;27;8845;-75
2023/09/05 03:48:37;;;;;;;;;20.40;19.60;;;;;17.35;53.80;99751.50;5108362;28;8837;-76
2023/09/05 03:51:07;;;;;;;;;22.60;22.00;;;;;17.38;53.45;99754.00;5091403;28;9597;-75
2023/09/05 03:53:36;;;;;;;;;17.00;16.60;;;;;17.37;53.44;99750.50;5090800;28;8875;-76
2023/09/05 03:56:07;;;;;;;;;28.00;27.60;;;;;17.37;53.31;99752.28;5107374;28;8828;-75
2023/09/05 03:58:35;;;;;;;;;36.60;31.60;;;;;17.33;53.39;99756.03;5072315;28;8847;-75
2023/09/05 04:01:04;;;;;;;;;27.80;24.00;;;;;17.30;53.50;99761.47;5089997;28;8847;-76
2023/09/05 04:03:33;;;;;;;;;21.60;21.60;;;;;17.25;53.38;99760.78;5106720;28;8848;-75
2023/09/05 04:06:04;;;;;;;;;20.80;20.80;;;;;17.21;53.84;99760.06;5106202;27;8878;-76
2023/09/05 04:08:33;;;;;;;;;23.60;23.60;;;;;17.06;54.39;99766.94;5089733;28;8831;-75
2023/09/05 04:11:02;;;;;;;;;20.20;19.20;;;;;17.09;54.07;99773.91;5090168;28;8854;-76
2023/09/05 04:13:31;;;;;;;;;22.60;22.60;;;;;16.72;55.53;99776.38;5090025;28;8874;-75
2023/09/05 04:16:05;;;;;;;;;24.00;23.00;;;;;16.51;56.10;99774.59;5090406;28;8982;-75
2023/09/05 04:18:34;;;;;;;;;37.25;33.75;;;;;16.47;56.53;99773.88;5089560;28;8968;-74
2023/09/05 04:21:05;;;;;;;;;28.00;26.40;;;;;16.18;57.35;99775.91;5089747;28;8864;-76
2023/09/05 04:23:34;;;;;;;;;25.60;23.80;;;;;15.36;59.57;99783.47;5090003;27;8935;-75
2023/09/05 04:26:03;;;;;;;;;23.80;23.80;;;;;15.00;61.31;99786.53;5072029;28;8928;-76
2023/09/05 04:28:32;;;;;;;;;25.40;23.40;;;;;14.94;61.73;99772.66;5087865;28;8858;-77
2023/09/05 04:31:05;;;;;;;;;26.80;24.40;;;;;14.63;62.80;99777.19;5104818;28;8877;-77
2023/09/05 04:33:37;;;;;;;;;29.80;28.80;;;;;14.94;61.49;99775.28;5092343;28;8856;-76
2023/09/05 04:36:11;;;;;;;;;34.60;31.20;;;;;15.44;60.14;99776.09;5058212;28;8843;-74
2023/09/05 04:38:44;;;;;;;;;31.20;29.60;;;;;15.59;59.57;99781.75;5106985;28;9338;-76
2023/09/05 04:41:13;;;;;;;;;27.80;25.00;;;;;15.85;58.97;99786.09;5108224;28;8997;-75
2023/09/05 04:43:42;;;;;;;;;21.00;21.00;;;;;16.10;58.02;99788.63;5107796;28;8871;-75
2023/09/05 04:46:12;;;;;;;;;47.75;39.50;;;;;16.31;56.95;99792.19;5107930;28;9092;-76
2023/09/05 04:48:41;;;;;;;;;25.80;25.80;;;;;16.37;56.61;99794.59;5107559;28;9605;-75
2023/09/05 04:51:11;;;;;;;;;25.20;24.00;;;;;16.51;56.38;99793.19;5107350;28;8858;-76
2023/09/05 04:53:40;;;;;;;;;24.80;23.00;;;;;16.56;55.91;99786.75;5071653;27;8877;-76
2023/09/05 04:56:09;;;;;;;;;25.60;24.60;;;;;16.72;55.41;99794.06;5091118;28;8852;-76
2023/09/05 04:58:37;;;;;;;;;22.80;22.40;;;;;16.85;54.93;99795.28;5090601;28;9984;-75
2023/09/05 05:01:06;;;;;;;;;25.60;25.00;;;;;17.00;54.29;99793.75;5107471;28;8852;-74
2023/09/05 05:03:35;;;;;;;;;140.25;134.00;;;;;17.12;54.01;99795.03;5108591;28;8852;-75
2023/09/05 05:06:04;;;;;;;;;176.67;166.33;;;;;17.25;53.90;99805.94;5066121;28;11598;-75
2023/09/05 05:08:34;;;;;;;;;115.50;109.25;;;;;17.30;53.50;99804.84;5062571;28;8852;-75
2023/09/05 05:11:05;;;;;;;;;96.50;88.75;;;;;17.34;53.32;99813.53;5066929;28;11590;-74
2023/09/05 05:13:34;;;;;;;;;55.00;45.25;;;;;17.38;52.97;99812.47;5066121;28;12016;-75
2023/09/05 05:16:03;;;;;;;;;32.25;30.25;;;;;17.37;52.72;99816.91;5064994;28;8843;-75
2023/09/05 05:18:31;;;;;;;;;30.00;28.80;;;;;17.42;52.45;99818.50;5066091;28;8840;-76
2023/09/05 05:21:00;;;;;;;;;23.60;23.20;;;;;17.45;52.71;99821.88;5065520;28;8863;-74
2023/09/05 05:23:29;;;;;;;;;21.80;21.80;;;;;17.54;52.55;99820.63;5065949;28;8859;-74
2023/09/05 05:26:02;;;;;;;;;25.00;25.00;;;;;17.62;52.22;99812.28;5064211;28;8863;-75
2023/09/05 05:28:30;;;;;;;;;24.60;24.20;;;;;17.61;52.39;99813.22;5065454;28;8855;-77
2023/09/05 05:30:59;;;;;;;;;25.00;23.00;;;;;17.65;52.21;99818.34;5065650;28;8872;-74
2023/09/05 05:33:28;;;;;;;;;27.20;27.00;;;;;17.65;51.80;99823.66;5065460;28;8879;-76
2023/09/05 05:35:58;;;;;;;;;39.25;34.75;;;;;17.66;51.63;99820.03;5065018;28;8831;-75
2023/09/05 05:38:26;;;;;;;;;32.40;29.00;;;;;17.78;51.48;99822.16;5088274;27;8867;-78
2023/09/05 05:40:57;;;;;;;;;67.00;55.25;;;;;17.78;51.28;99818.63;5088413;27;8828;-76
2023/09/05 05:43:29;;;;;;;;;53.00;44.25;;;;;17.82;51.01;99825.53;5102758;28;8863;-77
2023/09/05 05:45:58;;;;;;;;;39.00;34.25;;;;;17.80;50.81;99814.09;5088954;28;8928;-76
2023/09/05 05:48:27;;;;;;;;;30.60;28.80;;;;;17.77;51.01;99803.59;5089098;28;8870;-79
2023/09/05 05:50:57;;;;;;;;;30.20;27.40;;;;;16.98;53.20;99807.13;5070642;28;8832;-78
2023/09/05 05:53:25;;;;;;;;;27.40;25.20;;;;;17.07;53.45;99808.50;5090241;28;9597;-78
2023/09/05 05:55:54;;;;;;;;;30.20;27.80;;;;;17.11;53.46;99809.22;5101908;28;8920;-78
2023/09/05 05:58:23;;;;;;;;;27.60;27.00;;;;;17.27;52.98;99818.28;5088603;27;8852;-79
2023/09/05 06:00:54;;;;;;;;;33.60;31.20;;;;;17.37;52.81;99816.06;5091752;28;8844;-76
2023/09/05 06:03:23;;;;;;;;;32.80;32.00;;;;;17.32;52.48;99815.41;5106243;27;8844;-79
2023/09/05 06:05:54;;;;;;;;;30.40;30.40;;;;;17.47;52.48;99816.50;5090176;28;8844;-80
2023/09/05 06:08:23;;;;;;;;;30.20;28.60;;;;;17.50;52.57;99816.38;5089103;28;8928;-75
2023/09/05 06:10:52;;;;;;;;;27.60;27.60;;;;;17.61;52.00;99814.09;5092828;28;8960;-77
2023/09/05 06:13:21;;;;;;;;;28.60;27.00;;;;;17.74;51.44;99817.91;5088682;28;8859;-78
2023/09/05 06:15:50;;;;;;;;;25.00;23.00;;;;;16.15;56.39;99834.41;5062647;28;10064;-76
2023/09/05 06:18:20;;;;;;;;;24.00;24.00;;;;;15.89;57.54;99835.41;5088506;27;8858;-77
2023/09/05 06:20:49;;;;;;;;;31.20;30.60;;;;;15.38;59.18;99829.31;5097103;28;8865;-78
2023/09/05 06:23:18;;;;;;;;;23.60;22.60;;;;;14.84;60.96;99840.91;5090943;28;8986;-77
2023/09/05 06:25:47;;;;;;;;;30.20;29.40;;;;;14.52;62.50;99842.81;5092792;27;9021;-77
2023/09/05 06:28:17;;;;;;;;;31.60;29.60;;;;;14.76;61.84;99850.91;5085375;28;8922;-80
2023/09/05 06:30:46;;;;;;;;;26.00;25.20;;;;;14.75;62.10;99841.22;5088365;28;8839;-77
2023/09/05 06:33:15;;;;;;;;;40.75;36.00;;;;;14.99;61.54;99842.19;5088354;28;8856;-76
2023/09/05 06:35:45;;;;;;;;;31.80;28.60;;;;;14.93;61.59;99842.41;5088344;28;8836;-76
2023/09/05 06:38:15;;;;;;;;;37.75;33.25;;;;;14.78;61.98;99851.72;5087166;28;8856;-75
2023/09/05 06:40:43;;;;;;;;;32.40;29.00;;;;;14.82;61.69;99851.56;5069458;28;9573;-78
2023/09/05 06:43:12;;;;;;;;;30.20;29.40;;;;;15.23;60.26;99856.34;5088037;28;8969;-80
2023/09/05 06:45:41;;;;;;;;;29.40;29.00;;;;;15.17;60.67;99852.13;5088125;28;8856;-77
2023/09/05 06:48:10;;;;;;;;;27.20;26.20;;;;;15.17;60.97;99844.19;5088046;28;8877;-79
2023/09/05 06:50:39;;;;;;;;;37.00;33.50;;;;;15.67;59.86;99845.09;5084444;28;9593;-78
2023/09/05 06:53:09;;;;;;;;;53.50;44.25;;;;;16.00;58.81;99846.47;5067982;28;8971;-77
2023/09/05 06:55:38;;;;;;;;;32.60;30.60;;;;;16.31;57.74;99847.91;5104937;28;9618;-77
2023/09/05 06:58:07;;;;;;;;;28.20;25.00;;;;;16.63;56.59;99848.44;5074739;28;8848;-78
2023/09/05 07:00:36;;;;;;;;;31.40;30.20;;;;;16.62;56.33;99854.66;5089374;28;8865;-79
2023/09/05 07:03:05;;;;;;;;;25.40;25.40;;;;;15.97;57.93;99865.13;5088640;28;9662;-77
2023/09/05 07:05:39;;;;;;;;;30.80;30.00;;;;;15.45;59.79;99859.09;5088271;28;8859;-77
2023/09/05 07:08:18;;;;;;;;;33.50;32.00;;;;;15.24;60.44;99863.38;5088630;28;8843;-79
2023/09/05 07:10:48;;;;;;;;;25.60;24.20;;;;;14.92;62.03;99865.34;5087907;28;9577;-77
2023/09/05 07:13:17;;;;;;;;;28.00;27.00;;;;;14.82;62.45;99877.16;5087970;28;8924;-77
2023/09/05 07:15:46;;;;;;;;;29.40;27.80;;;;;14.92;62.04;99883.88;5087835;28;8871;-78
2023/09/05 07:18:15;;;;;;;;;32.60;30.60;;;;;15.42;60.51;99878.59;5088109;28;8847;-78
2023/09/05 07:20:44;;;;;;;;;29.80;27.80;;;;;15.68;60.00;99884.78;5087704;28;8868;-77
2023/09/05 07:23:13;;;;;;;;;28.00;26.00;;;;;15.28;61.13;99890.59;5052703;28;8848;-77
2023/09/05 07:25:44;;;;;;;;;30.00;29.00;;;;;15.28;61.65;99885.31;5051881;28;8975;-78
2023/09/05 07:28:13;;;;;;;;;30.40;29.20;;;;;15.78;59.80;99880.00;5087707;28;8876;-79
2023/09/05 07:30:42;;;;;;;;;30.00;28.40;;;;;16.22;59.15;99883.59;5087882;28;8897;-78
2023/09/05 07:33:11;;;;;;;;;33.60;31.40;;;;;16.69;57.84;99887.97;5087486;28;8871;-77
2023/09/05 07:35:40;;;;;;;;;22.40;21.60;;;;;17.09;56.68;99894.28;5088184;28;8860;-77
2023/09/05 07:38:09;;;;;;;;;30.20;29.00;;;;;17.46;55.39;99884.75;5087640;28;8874;-78
2023/09/05 07:40:38;;;;;;;;;29.40;27.60;;;;;17.61;54.00;99891.19;5087564;28;8839;-77
2023/09/05 07:43:08;;;;;;;;;27.20;27.20;;;;;17.76;54.28;99882.53;5088038;28;9616;-76
2023/09/05 07:45:38;;;;;;;;;28.80;25.80;;;;;18.06;53.14;99875.88;5089292;28;8851;-78
2023/09/05 07:48:08;;;;;;;;;27.20;26.60;;;;;17.52;53.92;99878.31;5088772;28;8859;-77
2023/09/05 07:50:37;;;;;;;;;32.20;30.40;;;;;17.02;56.21;99881.31;5091440;28;9597;-77
2023/09/05 07:53:06;;;;;;;;;27.20;25.80;;;;;17.55;55.33;99883.47;5091200;28;8851;-78
2023/09/05 07:55:35;;;;;;;;;27.20;27.20;;;;;17.72;54.50;99883.59;5091093;28;8867;-78
2023/09/05 07:58:04;;;;;;;;;30.60;28.00;;;;;17.78;54.31;99877.13;5091427;28;9006;-76
2023/09/05 08:00:34;;;;;;;;;28.80;27.40;;;;;18.25;53.91;99875.88;5091254;28;8832;-76
2023/09/05 08:03:04;;;;;;;;;28.60;26.80;;;;;18.59;53.12;99880.44;5090942;28;8867;-77
2023/09/05 08:05:33;;;;;;;;;28.80;27.00;;;;;18.84;52.20;99884.59;5091011;28;8844;-77
2023/09/05 08:08:01;;;;;;;;;27.40;26.60;;;;;19.06;51.77;99879.00;5090796;28;8936;-76
2023/09/05 08:10:30;;;;;;;;;33.20;31.60;;;;;18.31;52.91;99887.09;5090919;28;9052;-77
2023/09/05 08:12:59;;;;;;;;;25.40;25.40;;;;;17.43;56.06;99886.69;5090618;28;8881;-78
2023/09/05 08:15:28;;;;;;;;;29.00;28.60;;;;;17.56;55.64;99896.69;5090848;28;9083;-77
2023/09/05 08:17:58;;;;;;;;;27.80;26.00;;;;;17.36;56.52;99888.72;5089739;28;8964;-76
2023/09/05 08:20:27;;;;;;;;;28.00;24.20;;;;;17.89;55.33;99887.25;5090684;28;8878;-75
2023/09/05 08:22:56;;;;;;;;;29.20;26.20;;;;;18.19;54.00;99892.13;5090593;28;8863;-76
2023/09/05 08:25:25;;;;;;;;;30.40;28.80;;;;;18.22;53.96;99889.34;5090676;28;8855;-77
2023/09/05 08:27:55;;;;;;;;;29.00;27.40;;;;;18.49;53.13;99892.47;5090606;28;8885;-76
2023/09/05 08:30:25;;;;;;;;;22.40;22.40;;;;;18.83;52.06;99889.03;5090858;28;8898;-77
2023/09/05 08:32:56;;;;;;;;;22.00;22.00;;;;;19.01;51.48;99887.25;5090244;28;8860;-76
2023/09/05 08:35:26;;;;;;;;;29.40;27.00;;;;;18.24;53.67;99890.13;5090802;28;8851;-76
2023/09/05 08:37:57;;;;;;;;;30.00;27.60;;;;;17.67;55.62;99896.22;5055465;28;8917;-76
2023/09/05 08:40:26;;;;;;;;;25.00;25.00;;;;;18.24;53.89;99892.78;5092132;28;8911;-77
2023/09/05 08:42:55;;;;;;;;;27.80;26.40;;;;;18.76;52.50;99892.91;5092705;28;9664;-78
2023/09/05 08:45:24;;;;;;;;;24.20;23.60;;;;;19.13;51.50;99889.28;5090668;28;8832;-77
2023/09/05 08:47:53;;;;;;;;;24.20;23.80;;;;;19.38;50.52;99893.34;5054390;28;8944;-77
2023/09/05 08:50:25;;;;;;;;;24.80;22.80;;;;;18.57;52.24;99900.94;5090278;28;8986;-77
2023/09/05 08:52:59;;;;;;;;;22.60;21.40;;;;;18.60;52.46;99890.13;5089979;28;8882;-77
2023/09/05 08:55:29;;;;;;;;;24.40;23.40;;;;;18.75;52.10;99886.72;5071506;28;8863;-76
2023/09/05 08:58:00;;;;;;;;;21.20;21.20;;;;;19.04;51.59;99897.75;5090154;28;8836;-76
2023/09/05 09:00:28;;;;;;;;;20.80;19.20;;;;;19.34;50.09;99883.78;5089395;28;8957;-77
2023/09/05 09:02:59;;;;;;;;;18.00;18.00;;;;;19.68;48.67;99892.72;5089931;28;8839;-76
2023/09/05 09:05:29;;;;;;;;;21.20;19.60;;;;;20.02;48.96;99882.88;5089857;28;8820;-78
2023/09/05 09:07:59;;;;;;;;;24.20;22.80;;;;;19.54;49.53;99889.91;5105036;28;8852;-78
2023/09/05 09:10:28;;;;;;;;;20.40;19.60;;;;;19.76;49.58;99889.63;5090277;28;8856;-78
2023/09/05 09:13:14;;;;;;;;;22.00;20.40;;;;;20.24;47.62;99882.59;5089957;28;8944;-78
2023/09/05 09:15:46;;;;;;;;;17.40;16.60;;;;;19.44;49.51;99878.84;5089836;28;8931;-78
2023/09/05 09:18:17;;;;;;;;;20.60;20.00;;;;;19.11;50.42;99884.97;5089664;28;8843;-77
2023/09/05 09:20:49;;;;;;;;;17.60;17.00;;;;;19.54;49.10;99881.91;5089624;28;9502;-77
2023/09/05 09:23:27;;;;;;;;;20.40;18.00;;;;;20.12;48.08;99885.91;5089844;28;8994;-77
2023/09/05 09:25:57;;;;;;;;;18.20;17.60;;;;;20.23;46.66;99892.38;5089686;28;8840;-77
2023/09/05 09:28:28;;;;;;;;;18.60;18.40;;;;;20.25;46.62;99902.97;5091537;28;8871;-77
2023/09/05 09:30:59;;;;;;;;;14.00;13.00;;;;;20.59;46.36;99893.06;5090804;28;8867;-77
2023/09/05 09:33:29;;;;;;;;;21.60;20.60;;;;;20.75;45.17;99899.25;5090298;28;8851;-78
2023/09/05 09:36:10;;;;;;;;;21.20;21.20;;;;;20.91;44.98;99901.88;5101171;28;8943;-77
2023/09/05 09:38:41;;;;;;;;;19.60;19.00;;;;;21.12;44.67;99899.78;5073471;28;8871;-78
2023/09/05 09:41:11;;;;;;;;;22.20;19.80;;;;;21.31;43.61;99894.19;5109696;28;8853;-77
2023/09/05 09:43:40;;;;;;;;;23.40;22.20;;;;;21.53;44.10;99893.75;5109547;28;8853;-77
2023/09/05 09:46:09;;;;;;;;;24.00;23.20;;;;;21.67;43.22;99902.78;5110163;28;8861;-77
2023/09/05 09:48:43;;;;;;;;;26.40;25.00;;;;;21.74;43.23;99891.59;5109540;28;8849;-78
2023/09/05 09:51:13;;;;;;;;;23.60;21.80;;;;;21.58;43.24;99889.00;5108423;28;8861;-78
2023/09/05 09:53:49;;;;;;;;;24.20;22.60;;;;;21.67;43.34;99898.28;5085881;28;8859;-77
2023/09/05 09:56:21;;;;;;;;;23.20;22.80;;;;;21.80;43.46;99896.56;5089667;28;8912;-77
2023/09/05 09:58:55;;;;;;;;;25.20;24.40;;;;;21.64;43.20;99890.47;5089324;28;8855;-77
2023/09/05 10:01:26;;;;;;;;;26.00;24.80;;;;;21.55;43.24;99888.31;5087860;28;8870;-77
2023/09/05 10:03:55;;;;;;;;;28.40;27.20;;;;;21.57;43.69;99892.63;5088928;28;9738;-77
2023/09/05 10:06:26;;;;;;;;;23.40;23.40;;;;;21.03;43.78;99909.22;5089058;28;8847;-77
2023/09/05 10:08:57;;;;;;;;;28.20;23.60;;;;;20.60;45.28;99909.00;5089182;28;8886;-78
2023/09/05 10:11:27;;;;;;;;;25.20;24.20;;;;;20.59;45.70;99887.72;5089090;28;8859;-77
2023/09/05 10:13:58;;;;;;;;;19.20;18.40;;;;;21.01;45.08;99888.88;5088640;28;8844;-78
2023/09/05 10:16:28;;;;;;;;;19.80;18.60;;;;;21.37;44.69;99890.28;5088481;28;8951;-76
2023/09/05 10:18:59;;;;;;;;;17.00;16.80;;;;;21.68;43.67;99886.66;5088537;28;8875;-76
2023/09/05 10:21:30;;;;;;;;;20.00;18.80;;;;;21.99;43.07;99882.91;5069419;28;8828;-77
2023/09/05 10:24:01;;;;;;;;;20.80;20.00;;;;;22.07;42.11;99887.78;5088599;28;9656;-77
2023/09/05 10:26:31;;;;;;;;;19.80;17.80;;;;;22.40;42.58;99879.41;5088517;28;8901;-76
2023/09/05 10:28:59;;;;;;;;;22.80;21.40;;;;;21.86;42.64;99876.59;5088415;28;8859;-78
2023/09/05 10:31:31;;;;;;;;;17.20;16.60;;;;;22.09;42.49;99874.28;5053866;28;9617;-77
2023/09/05 10:33:59;;;;;;;;;9.80;9.80;;;;;21.86;42.20;99876.59;5089741;28;8839;-75
2023/09/05 10:36:46;;;;;;;;;13.00;13.00;;;;;22.08;41.70;99877.94;5088767;28;8858;-77
2023/09/05 10:39:24;;;;;;;;;15.80;15.00;;;;;22.33;41.75;99878.09;5069906;28;8903;-77
2023/09/05 10:41:53;;;;;;;;;13.00;11.60;;;;;22.61;41.42;99879.81;5087064;28;8836;-76
2023/09/05 10:44:23;;;;;;;;;14.20;14.20;;;;;22.86;40.95;99874.66;5089101;28;8878;-77
2023/09/05 10:46:54;;;;;;;;;13.00;12.00;;;;;23.08;39.90;99879.47;5088640;28;8847;-77
2023/09/05 10:49:23;;;;;;;;;11.20;11.20;;;;;23.25;38.87;99864.88;5087713;28;8944;-77
2023/09/05 10:52:17;;;;;;;;;10.60;10.60;;;;;23.67;38.95;99868.25;5088229;28;9589;-78
2023/09/05 10:54:47;;;;;;;;;13.80;13.80;;;;;23.74;39.34;99881.13;5088484;28;8941;-77
2023/09/05 10:57:37;;;;;;;;;10.00;10.00;;;;;24.06;37.93;99869.91;5088562;28;8851;-78
2023/09/05 11:00:29;;;;;;;;;14.00;12.40;;;;;24.03;37.60;99862.06;5069318;28;8856;-79
2023/09/05 11:03:12;;;;;;;;;12.60;11.80;;;;;24.29;37.38;99864.72;5088503;28;8875;-76
2023/09/05 11:05:45;;;;;;;;;10.20;9.60;;;;;24.33;37.10;99859.00;5086181;28;8898;-77
2023/09/05 11:08:21;;;;;;;;;12.60;10.60;;;;;24.43;35.94;99861.84;5089190;28;8863;-77
2023/09/05 11:10:53;;;;;;;;;12.80;11.80;;;;;24.61;36.33;99858.78;5088332;28;8967;-77
2023/09/05 11:13:22;;;;;;;;;11.00;11.00;;;;;24.88;35.43;99854.00;5088351;28;8839;-76
2023/09/05 11:15:59;;;;;;;;;9.40;9.40;;;;;25.00;35.39;99852.25;5088489;28;8855;-76
2023/09/05 11:18:28;;;;;;;;;11.40;10.60;;;;;25.13;34.54;99855.69;5088692;28;8945;-76
2023/09/05 11:20:58;;;;;;;;;10.60;9.60;;;;;25.29;33.89;99852.66;5068839;28;8844;-76
2023/09/05 11:23:29;;;;;;;;;10.60;9.60;;;;;25.50;33.27;99849.31;5088745;28;8948;-78
2023/09/05 11:26:00;;;;;;;;;8.80;8.80;;;;;25.67;33.42;99847.97;5057366;28;9010;-78
2023/09/05 11:28:29;;;;;;;;;10.20;9.20;;;;;25.80;33.48;99851.38;5092141;28;8863;-76
2023/09/05 11:31:03;;;;;;;;;14.00;12.20;;;;;25.78;33.42;99847.13;5091516;28;8870;-76
2023/09/05 11:33:34;;;;;;;;;13.20;13.20;;;;;25.88;33.40;99843.53;5092173;28;9597;-77
2023/09/05 11:36:06;;;;;;;;;8.40;8.20;;;;;26.01;33.39;99831.81;5091489;28;8980;-76
2023/09/05 11:38:46;;;;;;;;;11.00;11.00;;;;;26.25;31.80;99843.28;5106333;28;8863;-77